sensor_id;sensor_type;location;lat;lon;timestamp;P1;durP1;ratioP1;P2;durP2;ratioP2
51491;SDS011;37569;50.548;8.778;2023-06-14T00:00:38;6.9;;;4.4;;
51491;SDS011;37569;50.548;8.778;2023-06-14T00:05:38;5.1;;;4.2;;
51491;SDS011;37569;50.548;8.778;2023-06-14T00:10:39;5.6;;;4;;
51491;SDS011;37569;50.548;8.778;2023-06-14T00:15:40;5.3;;;4;;
51491;SDS011;37569;50.548;8.778;2023-06-14T00:20:41;5.2;;;4.1;;
51491;SDS011;37569;50.548;8.778;2023-06-14T00:25:41;7.6;;;4;;
51491;SDS011;37569;50.548;8.778;2023-06-14T00:30:42;7.2;;;3.9;;
51491;SDS011;37569;50.548;8.778;2023-06-14T00:35:43;4.9;;;4.1;;
51491;SDS011;37569;50.548;8.778;2023-06-14T00:40:44;6.8;;;3.9;;
51491;SDS011;37569;50.548;8.778;2023-06-14T00:45:44;6.4;;;3.8;;
51491;SDS011;37569;50.548;8.778;2023-06-14T00:50:45;6.2;;;4.1;;
51491;SDS011;37569;50.548;8.778;2023-06-14T00:55:46;6.8;;;4.1;;
51491;SDS011;37569;50.548;8.778;2023-06-14T01:00:47;4.7;;;3.6;;
51491;SDS011;37569;50.548;8.778;2023-06-14T01:05:47;6.4;;;4;;
51491;SDS011;37569;50.548;8.778;2023-06-14T01:10:51;5.7;;;3.8;;
51491;SDS011;37569;50.548;8.778;2023-06-14T01:15:49;5.6;;;3.7;;
51491;SDS011;37569;50.548;8.778;2023-06-14T01:20:49;6.5;;;4.1;;
51491;SDS011;37569;50.548;8.778;2023-06-14T01:25:50;6;;;4.1;;
51491;SDS011;37569;50.548;8.778;2023-06-14T01:30:51;5.8;;;4.2;;
51491;SDS011;37569;50.548;8.778;2023-06-14T01:35:52;6.3;;;4;;
51491;SDS011;37569;50.548;8.778;2023-06-14T01:40:53;6.3;;;4.1;;
51491;SDS011;37569;50.548;8.778;2023-06-14T01:45:53;7;;;4.2;;
51491;SDS011;37569;50.548;8.778;2023-06-14T01:50:54;6.1;;;4.2;;
51491;SDS011;37569;50.548;8.778;2023-06-14T01:55:55;9.3;;;4.4;;
51491;SDS011;37569;50.548;8.778;2023-06-14T02:00:55;5.9;;;4.3;;
51491;SDS011;37569;50.548;8.778;2023-06-14T02:05:56;5.2;;;4.1;;
51491;SDS011;37569;50.548;8.778;2023-06-14T02:10:57;6.3;;;4.7;;
51491;SDS011;37569;50.548;8.778;2023-06-14T02:15:58;8;;;4.4;;
51491;SDS011;37569;50.548;8.778;2023-06-14T02:20:58;5.7;;;4.2;;
51491;SDS011;37569;50.548;8.778;2023-06-14T02:25:59;6.7;;;4.2;;
51491;SDS011;37569;50.548;8.778;2023-06-14T02:31:00;6.5;;;4.1;;
51491;SDS011;37569;50.548;8.778;2023-06-14T02:36:00;6.6;;;4.4;;
51491;SDS011;37569;50.548;8.778;2023-06-14T02:41:01;6.2;;;4.5;;
51491;SDS011;37569;50.548;8.778;2023-06-14T02:46:02;5.9;;;4;;
51491;SDS011;37569;50.548;8.778;2023-06-14T02:51:02;5.2;;;4.1;;
51491;SDS011;37569;50.548;8.778;2023-06-14T02:56:03;4.8;;;4;;
51491;SDS011;37569;50.548;8.778;2023-06-14T03:01:04;4.8;;;4.1;;
51491;SDS011;37569;50.548;8.778;2023-06-14T03:06:04;5.8;;;4.2;;
51491;SDS011;37569;50.548;8.778;2023-06-14T03:11:05;7.1;;;4.4;;
51491;SDS011;37569;50.548;8.778;2023-06-14T03:16:06;6.4;;;4.3;;
51491;SDS011;37569;50.548;8.778;2023-06-14T03:21:06;5.2;;;3.9;;
51491;SDS011;37569;50.548;8.778;2023-06-14T03:26:07;6.3;;;4.5;;
51491;SDS011;37569;50.548;8.778;2023-06-14T03:31:08;4.8;;;4.3;;
51491;SDS011;37569;50.548;8.778;2023-06-14T03:36:08;6.6;;;4.4;;
51491;SDS011;37569;50.548;8.778;2023-06-14T03:41:09;6.8;;;4.2;;
51491;SDS011;37569;50.548;8.778;2023-06-14T03:46:10;4.8;;;3.9;;
51491;SDS011;37569;50.548;8.778;2023-06-14T03:51:10;4.7;;;4.1;;
51491;SDS011;37569;50.548;8.778;2023-06-14T03:56:11;7;;;4.1;;
51491;SDS011;37569;50.548;8.778;2023-06-14T04:01:12;4.4;;;3.8;;
51491;SDS011;37569;50.548;8.778;2023-06-14T04:06:12;6.3;;;4.1;;
51491;SDS011;37569;50.548;8.778;2023-06-14T04:11:13;6.3;;;4.2;;
51491;SDS011;37569;50.548;8.778;2023-06-14T04:16:14;7.2;;;3.8;;
51491;SDS011;37569;50.548;8.778;2023-06-14T04:21:15;7.1;;;4.1;;
51491;SDS011;37569;50.548;8.778;2023-06-14T04:26:16;5.6;;;4;;
51491;SDS011;37569;50.548;8.778;2023-06-14T04:31:17;4.4;;;3.7;;
51491;SDS011;37569;50.548;8.778;2023-06-14T04:36:17;4.3;;;3.8;;
51491;SDS011;37569;50.548;8.778;2023-06-14T04:41:18;5.5;;;4;;
51491;SDS011;37569;50.548;8.778;2023-06-14T04:46:18;5.5;;;3.9;;
51491;SDS011;37569;50.548;8.778;2023-06-14T04:51:19;7.7;;;4.1;;
51491;SDS011;37569;50.548;8.778;2023-06-14T04:56:20;6.3;;;4;;
51491;SDS011;37569;50.548;8.778;2023-06-14T05:01:21;6.3;;;3.7;;
51491;SDS011;37569;50.548;8.778;2023-06-14T05:06:21;6;;;3.7;;
51491;SDS011;37569;50.548;8.778;2023-06-14T05:11:22;5.2;;;3.6;;
51491;SDS011;37569;50.548;8.778;2023-06-14T05:16:23;6.2;;;3.6;;
51491;SDS011;37569;50.548;8.778;2023-06-14T05:21:23;6.1;;;3.9;;
51491;SDS011;37569;50.548;8.778;2023-06-14T05:26:24;4.6;;;3.6;;
51491;SDS011;37569;50.548;8.778;2023-06-14T05:31:25;6.1;;;3.6;;
51491;SDS011;37569;50.548;8.778;2023-06-14T05:36:26;8;;;3.6;;
51491;SDS011;37569;50.548;8.778;2023-06-14T05:41:27;4.7;;;3.8;;
51491;SDS011;37569;50.548;8.778;2023-06-14T05:46:27;5.4;;;3.7;;
51491;SDS011;37569;50.548;8.778;2023-06-14T05:51:28;5.3;;;3.5;;
51491;SDS011;37569;50.548;8.778;2023-06-14T05:56:29;5.4;;;3.6;;
51491;SDS011;37569;50.548;8.778;2023-06-14T06:01:30;5.8;;;3.9;;
51491;SDS011;37569;50.548;8.778;2023-06-14T06:06:31;6;;;3.4;;
51491;SDS011;37569;50.548;8.778;2023-06-14T06:11:32;6.3;;;3.4;;
51491;SDS011;37569;50.548;8.778;2023-06-14T06:16:33;4.4;;;3.4;;
51491;SDS011;37569;50.548;8.778;2023-06-14T06:21:33;5.8;;;3.6;;
51491;SDS011;37569;50.548;8.778;2023-06-14T06:26:34;4.4;;;3.5;;
51491;SDS011;37569;50.548;8.778;2023-06-14T06:31:35;5;;;3.3;;
51491;SDS011;37569;50.548;8.778;2023-06-14T06:36:36;3.3;;;3;;
51491;SDS011;37569;50.548;8.778;2023-06-14T06:41:37;4.7;;;3;;
51491;SDS011;37569;50.548;8.778;2023-06-14T06:46:38;6.1;;;3.2;;
51491;SDS011;37569;50.548;8.778;2023-06-14T06:51:40;3.9;;;3.2;;
51491;SDS011;37569;50.548;8.778;2023-06-14T06:56:40;5.3;;;3.3;;
51491;SDS011;37569;50.548;8.778;2023-06-14T07:01:41;4.8;;;3;;
51491;SDS011;37569;50.548;8.778;2023-06-14T07:06:42;4.2;;;3;;
51491;SDS011;37569;50.548;8.778;2023-06-14T07:11:43;5.3;;;3.2;;
51491;SDS011;37569;50.548;8.778;2023-06-14T07:16:43;3.3;;;2.9;;
51491;SDS011;37569;50.548;8.778;2023-06-14T07:21:44;4.1;;;2.8;;
51491;SDS011;37569;50.548;8.778;2023-06-14T07:26:45;4.6;;;3;;
51491;SDS011;37569;50.548;8.778;2023-06-14T07:31:46;4.1;;;2.9;;
51491;SDS011;37569;50.548;8.778;2023-06-14T07:36:47;4.2;;;3.1;;
51491;SDS011;37569;50.548;8.778;2023-06-14T07:41:48;4.3;;;3.3;;
51491;SDS011;37569;50.548;8.778;2023-06-14T07:46:49;5.1;;;3;;
51491;SDS011;37569;50.548;8.778;2023-06-14T07:51:50;4.2;;;3.1;;
51491;SDS011;37569;50.548;8.778;2023-06-14T07:56:51;5.3;;;2.6;;
51491;SDS011;37569;50.548;8.778;2023-06-14T08:01:52;3.7;;;2.4;;
51491;SDS011;37569;50.548;8.778;2023-06-14T08:06:52;2.6;;;2.4;;
51491;SDS011;37569;50.548;8.778;2023-06-14T08:11:53;4.5;;;2.2;;
51491;SDS011;37569;50.548;8.778;2023-06-14T08:16:54;4.4;;;2.6;;
51491;SDS011;37569;50.548;8.778;2023-06-14T08:21:55;4.5;;;2.8;;
51491;SDS011;37569;50.548;8.778;2023-06-14T08:26:56;4.1;;;2.8;;
51491;SDS011;37569;50.548;8.778;2023-06-14T08:31:57;4.8;;;2.8;;
51491;SDS011;37569;50.548;8.778;2023-06-14T08:36:58;4.2;;;2.8;;
51491;SDS011;37569;50.548;8.778;2023-06-14T08:41:59;3.3;;;2.9;;
51491;SDS011;37569;50.548;8.778;2023-06-14T08:47:00;3.4;;;2.9;;
51491;SDS011;37569;50.548;8.778;2023-06-14T08:52:01;5;;;3;;
51491;SDS011;37569;50.548;8.778;2023-06-14T08:57:02;3.7;;;2.8;;
51491;SDS011;37569;50.548;8.778;2023-06-14T09:02:03;3.7;;;2.9;;
51491;SDS011;37569;50.548;8.778;2023-06-14T09:07:03;4.9;;;3.2;;
51491;SDS011;37569;50.548;8.778;2023-06-14T09:12:06;3.9;;;3.1;;
51491;SDS011;37569;50.548;8.778;2023-06-14T09:17:05;5.4;;;2.9;;
51491;SDS011;37569;50.548;8.778;2023-06-14T09:22:06;4;;;3;;
51491;SDS011;37569;50.548;8.778;2023-06-14T09:27:07;3.9;;;3.1;;
51491;SDS011;37569;50.548;8.778;2023-06-14T09:32:08;5.5;;;3.1;;
51491;SDS011;37569;50.548;8.778;2023-06-14T09:37:09;4.2;;;3;;
51491;SDS011;37569;50.548;8.778;2023-06-14T09:42:15;3.5;;;2.9;;
51491;SDS011;37569;50.548;8.778;2023-06-14T09:47:11;4;;;2.9;;
51491;SDS011;37569;50.548;8.778;2023-06-14T09:52:14;5.1;;;2.9;;
51491;SDS011;37569;50.548;8.778;2023-06-14T09:57:13;4.3;;;2.6;;
51491;SDS011;37569;50.548;8.778;2023-06-14T10:02:18;3.4;;;2.8;;
51491;SDS011;37569;50.548;8.778;2023-06-14T10:07:16;3;;;2.7;;
51491;SDS011;37569;50.548;8.778;2023-06-14T10:12:16;4.1;;;2.6;;
51491;SDS011;37569;50.548;8.778;2023-06-14T10:17:20;2.8;;;2.5;;
51491;SDS011;37569;50.548;8.778;2023-06-14T10:22:19;3.6;;;2.8;;
51491;SDS011;37569;50.548;8.778;2023-06-14T10:27:19;5;;;2.5;;
51491;SDS011;37569;50.548;8.778;2023-06-14T10:32:20;3.6;;;2.6;;
51491;SDS011;37569;50.548;8.778;2023-06-14T10:37:21;4.8;;;2.5;;
51491;SDS011;37569;50.548;8.778;2023-06-14T10:42:23;4.1;;;2.8;;
51491;SDS011;37569;50.548;8.778;2023-06-14T10:47:24;4.1;;;2.8;;
51491;SDS011;37569;50.548;8.778;2023-06-14T10:52:25;4.2;;;3.3;;
51491;SDS011;37569;50.548;8.778;2023-06-14T10:57:25;4.1;;;2.7;;
51491;SDS011;37569;50.548;8.778;2023-06-14T11:07:33;2.8;;;2.4;;
51491;SDS011;37569;50.548;8.778;2023-06-14T11:12:28;2.9;;;2.4;;
51491;SDS011;37569;50.548;8.778;2023-06-14T11:17:29;4.2;;;2.6;;
51491;SDS011;37569;50.548;8.778;2023-06-14T11:22:38;3;;;2.7;;
51491;SDS011;37569;50.548;8.778;2023-06-14T11:27:32;3.4;;;2.7;;
51491;SDS011;37569;50.548;8.778;2023-06-14T11:32:32;3.8;;;2.5;;
51491;SDS011;37569;50.548;8.778;2023-06-14T11:37:33;3.6;;;2.8;;
51491;SDS011;37569;50.548;8.778;2023-06-14T11:42:34;4.8;;;2.9;;
51491;SDS011;37569;50.548;8.778;2023-06-14T11:47:36;4.2;;;2.8;;
51491;SDS011;37569;50.548;8.778;2023-06-14T11:52:37;4.3;;;2.9;;
51491;SDS011;37569;50.548;8.778;2023-06-14T11:57:37;3.2;;;2.9;;
51491;SDS011;37569;50.548;8.778;2023-06-14T12:02:38;5.2;;;2.9;;
51491;SDS011;37569;50.548;8.778;2023-06-14T12:07:39;3.4;;;2.7;;
51491;SDS011;37569;50.548;8.778;2023-06-14T12:12:41;4.5;;;2.5;;
51491;SDS011;37569;50.548;8.778;2023-06-14T12:17:42;4.5;;;2.9;;
51491;SDS011;37569;50.548;8.778;2023-06-14T12:22:59;3.1;;;2.5;;
51491;SDS011;37569;50.548;8.778;2023-06-14T12:27:43;3.5;;;2.8;;
51491;SDS011;37569;50.548;8.778;2023-06-14T12:32:44;3.2;;;2.9;;
51491;SDS011;37569;50.548;8.778;2023-06-14T12:37:45;3.4;;;3;;
51491;SDS011;37569;50.548;8.778;2023-06-14T12:42:46;3.4;;;2.7;;
51491;SDS011;37569;50.548;8.778;2023-06-14T12:47:48;3.7;;;2.9;;
51491;SDS011;37569;50.548;8.778;2023-06-14T12:52:48;3.4;;;2.6;;
51491;SDS011;37569;50.548;8.778;2023-06-14T12:57:49;3.1;;;2.7;;
51491;SDS011;37569;50.548;8.778;2023-06-14T13:02:51;4.6;;;3.1;;
51491;SDS011;37569;50.548;8.778;2023-06-14T13:07:52;3.9;;;2.8;;
51491;SDS011;37569;50.548;8.778;2023-06-14T13:12:53;3.6;;;2.7;;
51491;SDS011;37569;50.548;8.778;2023-06-14T13:17:54;4.3;;;2.5;;
51491;SDS011;37569;50.548;8.778;2023-06-14T13:22:55;3.8;;;2.8;;
51491;SDS011;37569;50.548;8.778;2023-06-14T13:27:56;2.7;;;2.5;;
51491;SDS011;37569;50.548;8.778;2023-06-14T13:32:57;3.2;;;2.5;;
51491;SDS011;37569;50.548;8.778;2023-06-14T13:37:58;3.7;;;2.8;;
51491;SDS011;37569;50.548;8.778;2023-06-14T13:42:59;3;;;2.7;;
51491;SDS011;37569;50.548;8.778;2023-06-14T13:48:00;4.3;;;2.7;;
51491;SDS011;37569;50.548;8.778;2023-06-14T13:53:01;3.2;;;2.9;;
51491;SDS011;37569;50.548;8.778;2023-06-14T13:58:02;3.8;;;2.8;;
51491;SDS011;37569;50.548;8.778;2023-06-14T14:03:03;4.2;;;2.9;;
51491;SDS011;37569;50.548;8.778;2023-06-14T14:08:04;4.4;;;2.8;;
51491;SDS011;37569;50.548;8.778;2023-06-14T14:13:05;4.4;;;2.8;;
51491;SDS011;37569;50.548;8.778;2023-06-14T14:18:06;2.8;;;2.5;;
51491;SDS011;37569;50.548;8.778;2023-06-14T14:23:07;3.4;;;2.7;;
51491;SDS011;37569;50.548;8.778;2023-06-14T14:28:08;2.9;;;2.7;;
51491;SDS011;37569;50.548;8.778;2023-06-14T14:33:09;4.5;;;2.6;;
51491;SDS011;37569;50.548;8.778;2023-06-14T14:38:10;3.2;;;2.8;;
51491;SDS011;37569;50.548;8.778;2023-06-14T14:43:11;3.9;;;2.6;;
51491;SDS011;37569;50.548;8.778;2023-06-14T14:48:12;3;;;2.6;;
51491;SDS011;37569;50.548;8.778;2023-06-14T14:53:13;3;;;2.7;;
51491;SDS011;37569;50.548;8.778;2023-06-14T14:58:15;3.9;;;2.5;;
51491;SDS011;37569;50.548;8.778;2023-06-14T15:03:16;4.8;;;2.7;;
51491;SDS011;37569;50.548;8.778;2023-06-14T15:08:17;2.9;;;2.6;;
51491;SDS011;37569;50.548;8.778;2023-06-14T15:13:18;4.4;;;2.6;;
51491;SDS011;37569;50.548;8.778;2023-06-14T15:18:19;3.6;;;2.8;;
51491;SDS011;37569;50.548;8.778;2023-06-14T15:23:20;4.5;;;3;;
51491;SDS011;37569;50.548;8.778;2023-06-14T15:28:21;4.3;;;2.8;;
51491;SDS011;37569;50.548;8.778;2023-06-14T15:33:22;3;;;2.7;;
51491;SDS011;37569;50.548;8.778;2023-06-14T15:38:23;3.5;;;2.9;;
51491;SDS011;37569;50.548;8.778;2023-06-14T15:43:24;2.9;;;2.6;;
51491;SDS011;37569;50.548;8.778;2023-06-14T15:48:25;3.3;;;3;;
51491;SDS011;37569;50.548;8.778;2023-06-14T15:53:27;3.4;;;2.6;;
51491;SDS011;37569;50.548;8.778;2023-06-14T15:58:28;4.2;;;2.7;;
51491;SDS011;37569;50.548;8.778;2023-06-14T16:03:29;3.1;;;2.8;;
51491;SDS011;37569;50.548;8.778;2023-06-14T16:08:30;3.4;;;2.8;;
51491;SDS011;37569;50.548;8.778;2023-06-14T16:13:31;5.4;;;2.9;;
51491;SDS011;37569;50.548;8.778;2023-06-14T16:18:32;4.2;;;2.8;;
51491;SDS011;37569;50.548;8.778;2023-06-14T16:23:33;4.9;;;2.9;;
51491;SDS011;37569;50.548;8.778;2023-06-14T16:28:34;3.3;;;3;;
51491;SDS011;37569;50.548;8.778;2023-06-14T16:33:36;3.5;;;2.7;;
51491;SDS011;37569;50.548;8.778;2023-06-14T16:38:37;3.8;;;2.6;;
51491;SDS011;37569;50.548;8.778;2023-06-14T16:43:38;3;;;2.8;;
51491;SDS011;37569;50.548;8.778;2023-06-14T16:48:39;3;;;2.7;;
51491;SDS011;37569;50.548;8.778;2023-06-14T16:53:40;5.6;;;3;;
51491;SDS011;37569;50.548;8.778;2023-06-14T16:58:41;4.4;;;2.9;;
51491;SDS011;37569;50.548;8.778;2023-06-14T17:03:42;4.5;;;2.9;;
51491;SDS011;37569;50.548;8.778;2023-06-14T17:08:43;4;;;3;;
51491;SDS011;37569;50.548;8.778;2023-06-14T17:13:44;3.3;;;2.6;;
51491;SDS011;37569;50.548;8.778;2023-06-14T17:18:46;4.4;;;2.8;;
51491;SDS011;37569;50.548;8.778;2023-06-14T17:23:47;4;;;2.6;;
51491;SDS011;37569;50.548;8.778;2023-06-14T17:28:48;3.5;;;2.8;;
51491;SDS011;37569;50.548;8.778;2023-06-14T17:33:49;3.1;;;2.8;;
51491;SDS011;37569;50.548;8.778;2023-06-14T17:38:50;5.2;;;2.7;;
51491;SDS011;37569;50.548;8.778;2023-06-14T17:43:51;3.6;;;2.8;;
51491;SDS011;37569;50.548;8.778;2023-06-14T17:48:52;3.4;;;2.6;;
51491;SDS011;37569;50.548;8.778;2023-06-14T17:53:53;4.2;;;2.5;;
51491;SDS011;37569;50.548;8.778;2023-06-14T17:58:54;5.4;;;2.8;;
51491;SDS011;37569;50.548;8.778;2023-06-14T18:03:55;3;;;2.5;;
51491;SDS011;37569;50.548;8.778;2023-06-14T18:08:56;4.2;;;2.7;;
51491;SDS011;37569;50.548;8.778;2023-06-14T18:13:57;3.6;;;3;;
51491;SDS011;37569;50.548;8.778;2023-06-14T18:18:58;3.1;;;2.8;;
51491;SDS011;37569;50.548;8.778;2023-06-14T18:23:59;3.3;;;2.6;;
51491;SDS011;37569;50.548;8.778;2023-06-14T18:29:00;2.7;;;2.5;;
51491;SDS011;37569;50.548;8.778;2023-06-14T18:34:01;3.7;;;2.6;;
51491;SDS011;37569;50.548;8.778;2023-06-14T18:39:02;3.3;;;2.6;;
51491;SDS011;37569;50.548;8.778;2023-06-14T18:44:03;3.4;;;2.8;;
51491;SDS011;37569;50.548;8.778;2023-06-14T18:49:04;3.1;;;2.6;;
51491;SDS011;37569;50.548;8.778;2023-06-14T18:54:05;4.4;;;2.8;;
51491;SDS011;37569;50.548;8.778;2023-06-14T18:59:06;4.1;;;2.4;;
51491;SDS011;37569;50.548;8.778;2023-06-14T19:04:07;3.1;;;2.4;;
51491;SDS011;37569;50.548;8.778;2023-06-14T19:09:08;2.9;;;2.5;;
51491;SDS011;37569;50.548;8.778;2023-06-14T19:14:09;4.1;;;2.5;;
51491;SDS011;37569;50.548;8.778;2023-06-14T19:19:10;3.4;;;2.4;;
51491;SDS011;37569;50.548;8.778;2023-06-14T19:24:10;2.5;;;2.3;;
51491;SDS011;37569;50.548;8.778;2023-06-14T19:29:11;3;;;2.4;;
51491;SDS011;37569;50.548;8.778;2023-06-14T19:34:12;9.4;;;2.4;;
51491;SDS011;37569;50.548;8.778;2023-06-14T19:39:13;2.8;;;2.2;;
51491;SDS011;37569;50.548;8.778;2023-06-14T19:44:14;2.6;;;2.4;;
51491;SDS011;37569;50.548;8.778;2023-06-14T19:49:15;2.4;;;2.2;;
51491;SDS011;37569;50.548;8.778;2023-06-14T19:54:16;4.5;;;2.3;;
51491;SDS011;37569;50.548;8.778;2023-06-14T19:59:17;3.9;;;2.6;;
51491;SDS011;37569;50.548;8.778;2023-06-14T20:04:18;3;;;2.7;;
51491;SDS011;37569;50.548;8.778;2023-06-14T20:09:18;3.1;;;2.8;;
51491;SDS011;37569;50.548;8.778;2023-06-14T20:14:19;3.7;;;2.5;;
51491;SDS011;37569;50.548;8.778;2023-06-14T20:19:20;3.5;;;2.4;;
51491;SDS011;37569;50.548;8.778;2023-06-14T20:24:21;2.6;;;2.4;;
51491;SDS011;37569;50.548;8.778;2023-06-14T20:29:22;3;;;2.5;;
51491;SDS011;37569;50.548;8.778;2023-06-14T20:34:23;3.6;;;2.2;;
51491;SDS011;37569;50.548;8.778;2023-06-14T20:39:24;3.6;;;2.6;;
51491;SDS011;37569;50.548;8.778;2023-06-14T20:44:25;4.1;;;2.5;;
51491;SDS011;37569;50.548;8.778;2023-06-14T20:49:25;3.5;;;2.6;;
51491;SDS011;37569;50.548;8.778;2023-06-14T20:54:26;4.1;;;2.5;;
51491;SDS011;37569;50.548;8.778;2023-06-14T20:59:27;3.6;;;2.5;;
51491;SDS011;37569;50.548;8.778;2023-06-14T21:04:28;3.1;;;2.8;;
51491;SDS011;37569;50.548;8.778;2023-06-14T21:09:29;3.8;;;2.7;;
51491;SDS011;37569;50.548;8.778;2023-06-14T21:14:30;3.3;;;2.7;;
51491;SDS011;37569;50.548;8.778;2023-06-14T21:19:30;2.7;;;2.5;;
51491;SDS011;37569;50.548;8.778;2023-06-14T21:24:31;2.6;;;2.4;;
51491;SDS011;37569;50.548;8.778;2023-06-14T21:29:32;4.9;;;2.6;;
51491;SDS011;37569;50.548;8.778;2023-06-14T21:34:33;4.4;;;2.6;;
51491;SDS011;37569;50.548;8.778;2023-06-14T21:39:34;2.7;;;2.5;;
51491;SDS011;37569;50.548;8.778;2023-06-14T21:44:37;3;;;2.7;;
51491;SDS011;37569;50.548;8.778;2023-06-14T21:49:35;3.5;;;2.6;;
51491;SDS011;37569;50.548;8.778;2023-06-14T21:54:36;3.4;;;2.9;;
51491;SDS011;37569;50.548;8.778;2023-06-14T21:59:37;4.3;;;3;;
51491;SDS011;37569;50.548;8.778;2023-06-14T22:04:38;3.5;;;2.6;;
51491;SDS011;37569;50.548;8.778;2023-06-14T22:09:38;4.9;;;3;;
51491;SDS011;37569;50.548;8.778;2023-06-14T22:14:39;3.8;;;2.9;;
51491;SDS011;37569;50.548;8.778;2023-06-14T22:19:40;3.2;;;2.9;;
51491;SDS011;37569;50.548;8.778;2023-06-14T22:24:41;3.6;;;3;;
51491;SDS011;37569;50.548;8.778;2023-06-14T22:29:41;4.8;;;3.2;;
51491;SDS011;37569;50.548;8.778;2023-06-14T22:34:42;4.8;;;3.2;;
51491;SDS011;37569;50.548;8.778;2023-06-14T22:39:43;4;;;3.1;;
51491;SDS011;37569;50.548;8.778;2023-06-14T22:44:45;3.9;;;3.3;;
51491;SDS011;37569;50.548;8.778;2023-06-14T22:49:45;3.3;;;3;;
51491;SDS011;37569;50.548;8.778;2023-06-14T22:54:45;4.2;;;3.2;;
51491;SDS011;37569;50.548;8.778;2023-06-14T22:59:46;4.5;;;3.1;;
51491;SDS011;37569;50.548;8.778;2023-06-14T23:04:47;4.1;;;3.2;;
51491;SDS011;37569;50.548;8.778;2023-06-14T23:09:48;6.2;;;3.5;;
51491;SDS011;37569;50.548;8.778;2023-06-14T23:14:48;4.9;;;3.2;;
51491;SDS011;37569;50.548;8.778;2023-06-14T23:19:49;3.8;;;3.2;;
51491;SDS011;37569;50.548;8.778;2023-06-14T23:24:50;4.1;;;3.2;;
51491;SDS011;37569;50.548;8.778;2023-06-14T23:29:51;3.8;;;3.2;;
51491;SDS011;37569;50.548;8.778;2023-06-14T23:34:51;4.5;;;3.2;;
51491;SDS011;37569;50.548;8.778;2023-06-14T23:39:52;5;;;3.2;;
51491;SDS011;37569;50.548;8.778;2023-06-14T23:44:53;3.8;;;3.4;;
51491;SDS011;37569;50.548;8.778;2023-06-14T23:49:54;4.8;;;3.7;;
51491;SDS011;37569;50.548;8.778;2023-06-14T23:54:55;6.9;;;3.8;;
51491;SDS011;37569;50.548;8.778;2023-06-14T23:59:55;4;;;3.4;;
